Time;durP1;ratioP1;P1;durP2;ratioP2;P2;SDS_P1;SDS_P2;PMS_P1;PMS_P2;Temp;Humidity;BMP_temperature;BMP_pressure;BME280_temperature;BME280_humidity;BME280_pressure;Samples;Min_cycle;Max_cycle;Signal;HPM_P1;HPM_P2
2022/04/30 00:01:08;;;;;;;5.77;3.50;;;;;;;9.57;63.71;101897.34;5096194;28;20285;-81
2022/04/30 00:03:35;;;;;;;7.37;3.90;;;;;;;9.53;64.23;101900.16;5093255;28;20227;-81
2022/04/30 00:06:05;;;;;;;7.20;4.10;;;;;;;9.53;64.64;101897.50;5092020;28;20205;-82
2022/04/30 00:08:32;;;;;;;11.90;3.90;;;;;;;9.52;64.89;101909.06;5096316;28;20200;-81
2022/04/30 00:11:00;;;;;;;5.77;3.60;;;;;;;9.49;64.75;101904.78;5095945;28;20539;-83
2022/04/30 00:13:27;;;;;;;8.30;3.93;;;;;;;9.46;64.80;101909.34;5095884;28;20637;-83
2022/04/30 00:15:53;;;;;;;6.93;3.90;;;;;;;9.41;65.11;101904.19;5095525;28;20307;-81
2022/04/30 00:18:20;;;;;;;4.53;4.00;;;;;;;9.38;65.42;101904.28;5095425;28;20280;-82
2022/04/30 00:20:47;;;;;;;5.43;3.37;;;;;;;9.35;64.95;101905.28;5094074;28;20220;-83
2022/04/30 00:23:20;;;;;;;5.30;3.53;;;;;;;9.33;65.04;101900.94;5074511;28;20285;-84
2022/04/30 00:25:49;;;;;;;4.90;3.83;;;;;;;9.29;65.58;101900.22;5075200;28;20669;-82
2022/04/30 00:28:18;;;;;;;6.90;4.13;;;;;;;9.26;65.88;101902.13;5074791;28;20205;-82
2022/04/30 00:30:45;;;;;;;6.07;3.50;;;;;;;9.23;65.94;101899.56;5075057;28;20230;-81
2022/04/30 00:33:12;;;;;;;6.80;4.17;;;;;;;9.20;65.99;101897.03;5078580;28;20248;-81
2022/04/30 00:35:40;;;;;;;6.20;4.00;;;;;;;9.18;65.81;101896.22;5078871;28;20201;-81
2022/04/30 00:38:07;;;;;;;5.60;3.43;;;;;;;9.15;65.57;101896.31;5098560;28;20665;-81
2022/04/30 00:40:33;;;;;;;6.17;3.97;;;;;;;9.14;66.03;101897.25;5109122;28;20651;-82
2022/04/30 00:43:00;;;;;;;5.47;3.90;;;;;;;9.11;66.27;101903.56;5120079;28;20660;-81
2022/04/30 00:45:28;;;;;;;6.67;3.70;;;;;;;9.09;66.67;101899.22;5120189;28;20199;-81
2022/04/30 00:47:55;;;;;;;6.83;3.50;;;;;;;9.07;66.79;101898.41;5119783;28;20231;-81
2022/04/30 00:50:27;;;;;;;5.90;3.60;;;;;;;9.06;67.08;101902.88;5119686;28;20224;-81
2022/04/30 00:52:56;;;;;;;5.37;3.80;;;;;;;9.05;67.08;101902.00;5119698;28;20243;-82
2022/04/30 00:55:26;;;;;;;5.63;3.57;;;;;;;9.05;67.38;101909.09;5102024;28;20197;-81
2022/04/30 00:57:55;;;;;;;4.77;3.57;;;;;;;9.04;67.03;101908.22;5099138;28;20265;-81
2022/04/30 01:00:22;;;;;;;7.57;4.27;;;;;;;9.04;67.16;101897.59;5098871;28;20235;-82
2022/04/30 01:02:51;;;;;;;6.37;3.90;;;;;;;9.03;67.49;101900.31;5096053;28;20567;-81
2022/04/30 01:05:17;;;;;;;7.17;4.03;;;;;;;9.02;67.40;101902.09;5099173;28;20204;-82
2022/04/30 01:07:44;;;;;;;5.97;3.90;;;;;;;9.00;67.60;101898.63;5098598;28;20742;-82
2022/04/30 01:10:11;;;;;;;8.97;4.27;;;;;;;8.98;67.46;101895.16;5098730;28;20216;-83
2022/04/30 01:12:39;;;;;;;8.07;4.03;;;;;;;8.96;67.41;101891.69;5099469;28;20216;-82
2022/04/30 01:15:41;;;;;;;7.03;4.13;;;;;;;8.93;67.35;101889.16;5098960;28;20208;-82
2022/04/30 01:18:10;;;;;;;6.60;4.50;;;;;;;8.93;68.06;101880.34;5094810;28;20742;-83
2022/04/30 01:20:39;;;;;;;8.00;4.30;;;;;;;8.90;68.04;101880.44;5098495;28;20879;-81
2022/04/30 01:23:08;;;;;;;6.90;4.00;;;;;;;8.88;67.58;101884.94;5097860;28;20234;-82
2022/04/30 01:25:38;;;;;;;6.57;4.33;;;;;;;8.87;67.87;101885.84;5098736;28;20203;-83
2022/04/30 01:28:06;;;;;;;5.93;4.30;;;;;;;8.84;68.45;101881.53;5099361;28;20637;-81
2022/04/30 01:30:32;;;;;;;6.47;4.37;;;;;;;8.81;68.19;101876.31;5100070;28;20872;-81
2022/04/30 01:38:29;;;;;;;8.00;4.50;;;;;;;8.75;68.31;101876.56;5098706;28;20309;-82
2022/04/30 01:40:56;;;;;;;10.77;4.53;;;;;;;8.74;68.20;101882.78;5098778;28;20228;-82
2022/04/30 01:43:23;;;;;;;9.67;4.13;;;;;;;8.73;68.74;101883.72;5097949;28;20251;-82
2022/04/30 01:45:51;;;;;;;6.87;4.30;;;;;;;8.70;68.98;101875.84;5098639;28;20215;-81
2022/04/30 01:48:18;;;;;;;6.97;3.90;;;;;;;8.68;68.80;101873.25;5098537;28;20193;-84
2022/04/30 01:50:45;;;;;;;5.90;3.90;;;;;;;8.67;68.80;101868.84;5099211;28;20590;-82
2022/04/30 01:53:12;;;;;;;11.00;4.17;;;;;;;8.67;68.92;101873.31;5098105;28;20223;-83
2022/04/30 01:55:40;;;;;;;8.73;4.47;;;;;;;8.64;69.44;101865.44;5099640;28;20228;-82
2022/04/30 01:58:07;;;;;;;5.97;3.93;;;;;;;8.64;69.52;101868.09;5098755;28;20618;-82
2022/04/30 02:00:34;;;;;;;8.67;4.17;;;;;;;8.64;69.63;101865.44;5094375;28;20255;-82
2022/04/30 02:03:19;;;;;;;4.93;3.33;;;;;;;8.63;69.98;101861.03;5098872;28;20369;-82
2022/04/30 02:05:50;;;;;;;7.50;3.57;;;;;;;8.60;69.28;101862.03;5099847;28;20299;-82
2022/04/30 02:08:38;;;;;;;7.13;4.00;;;;;;;8.61;69.99;101865.53;5099349;28;20283;-83
2022/04/30 02:11:06;;;;;;;9.73;4.03;;;;;;;8.58;69.43;101853.28;5098439;28;20199;-83
2022/04/30 02:13:37;;;;;;;6.30;3.60;;;;;;;8.61;70.67;101852.25;5095390;28;20789;-82
2022/04/30 02:16:04;;;;;;;9.40;3.83;;;;;;;8.60;70.41;101851.41;5098253;28;20670;-83
2022/04/30 02:18:32;;;;;;;6.43;4.10;;;;;;;8.61;69.77;101857.56;5098665;28;20619;-82
2022/04/30 02:20:59;;;;;;;6.73;4.40;;;;;;;8.59;70.02;101848.81;5098587;28;20296;-82
2022/04/30 02:26:31;;;;;;;6.60;3.83;;;;;;;8.59;70.46;101836.41;5020761;28;20288;-83
2022/04/30 02:28:59;;;;;;;9.37;3.50;;;;;;;8.54;70.58;101830.41;5103441;28;20284;-82
2022/04/30 02:31:26;;;;;;;7.97;4.23;;;;;;;8.54;70.34;101832.19;5097566;28;20283;-81
2022/04/30 02:33:55;;;;;;;7.00;3.77;;;;;;;8.52;69.77;101823.41;5097787;28;20230;-82
2022/04/30 02:36:26;;;;;;;8.77;5.00;;;;;;;8.50;70.42;101823.44;5097434;28;20706;-81
2022/04/30 02:38:53;;;;;;;10.97;5.10;;;;;;;8.51;70.32;101821.66;5097182;28;20286;-81
2022/04/30 02:41:21;;;;;;;9.50;5.27;;;;;;;8.48;70.89;101820.00;5097134;28;20256;-82
2022/04/30 02:43:50;;;;;;;13.37;6.20;;;;;;;8.47;71.19;101823.56;5097694;28;20230;-83
2022/04/30 02:46:17;;;;;;;10.20;5.70;;;;;;;8.44;71.17;101823.66;5097173;28;20236;-82
2022/04/30 02:48:44;;;;;;;10.13;6.10;;;;;;;8.43;71.18;101819.28;5097193;28;20658;-82
2022/04/30 02:51:11;;;;;;;9.37;6.30;;;;;;;8.43;70.92;101821.06;5098288;28;20222;-81
2022/04/30 02:53:38;;;;;;;11.20;6.20;;;;;;;8.42;71.14;101817.53;5097553;28;20224;-82
2022/04/30 02:56:06;;;;;;;12.13;5.70;;;;;;;8.40;71.68;101810.59;5098027;28;20709;-81
2022/04/30 03:01:19;;;;;;;9.63;5.53;;;;;;;8.40;71.32;101810.59;5097915;28;20215;-81
2022/04/30 03:03:47;;;;;;;8.60;5.50;;;;;;;8.40;71.54;101810.59;5098205;28;20226;-81
2022/04/30 03:06:14;;;;;;;9.23;4.80;;;;;;;8.38;71.73;101807.09;5096935;28;20295;-81
2022/04/30 03:08:41;;;;;;;11.77;4.93;;;;;;;8.37;72.15;101803.59;5097655;28;20207;-81
2022/04/30 03:11:09;;;;;;;9.63;4.93;;;;;;;8.34;71.63;101795.72;5097216;28;20212;-82
2022/04/30 03:13:36;;;;;;;7.90;4.23;;;;;;;8.33;72.11;101800.16;5097038;28;20246;-81
2022/04/30 03:21:45;;;;;;;6.37;3.60;;;;;;;8.28;71.56;101795.91;5097389;28;20649;-82
2022/04/30 03:24:13;;;;;;;7.50;3.90;;;;;;;8.24;71.81;101792.47;5097407;28;20979;-82
2022/04/30 03:26:40;;;;;;;9.10;4.07;;;;;;;8.23;71.46;101796.09;5096394;28;20196;-82
2022/04/30 03:29:37;;;;;;;7.10;4.10;;;;;;;8.22;71.98;101799.66;5097912;28;20272;-82
2022/04/30 03:32:04;;;;;;;8.17;3.50;;;;;;;8.21;72.14;101797.94;5096951;28;20227;-81
2022/04/30 03:34:34;;;;;;;6.13;2.97;;;;;;;8.17;71.92;101791.00;5096878;28;20220;-81
2022/04/30 03:37:00;;;;;;;6.47;3.93;;;;;;;8.14;71.71;101783.13;5096938;28;20560;-82
2022/04/30 03:39:27;;;;;;;6.13;3.37;;;;;;;8.16;71.80;101788.38;5096728;28;20196;-81
2022/04/30 03:41:54;;;;;;;6.50;3.13;;;;;;;8.14;71.82;101785.78;5096355;28;20263;-82
2022/04/30 03:44:23;;;;;;;7.57;3.03;;;;;;;8.12;72.33;101784.97;5096136;28;20645;-81
2022/04/30 03:46:50;;;;;;;6.80;3.80;;;;;;;8.12;72.54;101790.28;5096379;28;20697;-81
2022/04/30 03:49:17;;;;;;;5.53;3.73;;;;;;;8.10;71.99;101791.25;5096323;28;20223;-83
2022/04/30 03:51:45;;;;;;;6.13;3.30;;;;;;;8.08;72.14;101791.28;5096532;28;20693;-82
2022/04/30 03:54:12;;;;;;;5.90;3.60;;;;;;;8.08;71.87;101785.13;5095819;28;20212;-82
2022/04/30 03:56:39;;;;;;;7.00;3.33;;;;;;;8.08;72.22;101790.44;5096683;28;20544;-81
2022/04/30 03:59:28;;;;;;;7.00;3.27;;;;;;;8.04;72.67;101789.69;5098825;28;20200;-82
2022/04/30 04:01:55;;;;;;;18.77;4.20;;;;;;;8.04;73.03;101784.38;5096938;28;20247;-82
2022/04/30 04:04:24;;;;;;;6.70;3.70;;;;;;;8.05;72.47;101799.38;5095639;28;20279;-82
2022/04/30 04:06:53;;;;;;;4.87;3.50;;;;;;;8.04;73.00;101802.97;5095858;28;20658;-81
2022/04/30 04:09:19;;;;;;;5.20;3.40;;;;;;;8.02;72.35;101796.84;5096934;28;20271;-82
2022/04/30 04:11:46;;;;;;;5.63;3.50;;;;;;;8.02;72.70;101791.53;5095829;28;20246;-81
2022/04/30 04:19:42;;;;;;;5.60;3.27;;;;;;;7.97;72.62;101796.13;5096555;28;20238;-83
2022/04/30 04:22:10;;;;;;;9.63;3.80;;;;;;;7.96;72.69;101794.38;5097377;28;20255;-83
2022/04/30 04:27:21;;;;;;;5.40;3.20;;;;;;;7.95;72.61;101803.25;5096785;28;20553;-83
2022/04/30 04:29:48;;;;;;;11.30;3.63;;;;;;;7.96;72.63;101805.84;5095934;28;20203;-85
2022/04/30 04:32:15;;;;;;;8.60;3.13;;;;;;;7.94;73.11;101801.53;5096093;28;20208;-82
2022/04/30 04:34:42;;;;;;;5.93;3.40;;;;;;;7.96;73.11;101810.31;5095778;28;20589;-82
2022/04/30 04:37:10;;;;;;;8.23;3.33;;;;;;;7.94;73.34;101804.19;5096406;28;20227;-82
2022/04/30 04:39:37;;;;;;;7.10;3.70;;;;;;;7.96;73.57;101805.84;5096241;28;20272;-82
2022/04/30 04:42:06;;;;;;;5.60;3.00;;;;;;;7.96;73.71;101799.69;5096179;28;20259;-82
2022/04/30 04:44:33;;;;;;;5.10;3.23;;;;;;;7.97;73.25;101804.06;5095750;28;20267;-82
2022/04/30 04:47:01;;;;;;;7.63;3.80;;;;;;;7.96;72.95;101802.34;5095426;28;20281;-82
2022/04/30 04:49:29;;;;;;;6.33;3.40;;;;;;;7.97;73.50;101801.41;5095326;28;20208;-82
2022/04/30 04:51:56;;;;;;;9.07;4.13;;;;;;;7.98;73.76;101804.03;5095088;28;20638;-82
2022/04/30 04:54:24;;;;;;;10.80;3.90;;;;;;;8.01;74.46;101797.75;5095080;28;20300;-84
2022/04/30 04:56:51;;;;;;;9.47;3.90;;;;;;;8.03;74.21;101806.53;5094938;28;20204;-82
2022/04/30 04:59:17;;;;;;;5.43;4.00;;;;;;;8.05;74.30;101804.69;5095588;28;20663;-83
2022/04/30 05:01:45;;;;;;;5.10;3.53;;;;;;;8.08;74.17;101812.53;5095909;28;20310;-83
2022/04/30 05:04:12;;;;;;;9.50;4.10;;;;;;;8.10;74.50;101807.16;5097097;28;20228;-83
2022/04/30 05:06:39;;;;;;;12.37;5.03;;;;;;;8.12;74.03;101807.97;5097202;28;20300;-83
2022/04/30 05:09:06;;;;;;;6.30;4.40;;;;;;;8.14;74.74;101814.09;5097950;28;20246;-83
2022/04/30 05:11:34;;;;;;;6.07;4.53;;;;;;;8.15;74.38;101822.00;5095080;28;20295;-82
2022/04/30 05:14:04;;;;;;;11.57;4.60;;;;;;;8.19;74.83;101823.66;5095012;28;20345;-82
2022/04/30 05:16:31;;;;;;;7.40;4.17;;;;;;;8.19;75.09;101821.00;5087391;28;20283;-84
2022/04/30 05:18:57;;;;;;;6.53;4.30;;;;;;;8.17;75.07;101825.47;5096718;28;20235;-82
2022/04/30 05:21:25;;;;;;;5.83;4.20;;;;;;;8.14;74.83;101820.28;5099324;28;20310;-83
2022/04/30 05:23:51;;;;;;;12.77;4.60;;;;;;;8.15;75.00;101832.63;5099057;28;20897;-82
2022/04/30 05:26:18;;;;;;;11.13;4.30;;;;;;;8.14;75.18;101822.06;5099823;28;20212;-82
2022/04/30 05:28:48;;;;;;;8.30;4.87;;;;;;;8.14;75.34;101822.94;5099864;28;20254;-82
2022/04/30 05:31:15;;;;;;;10.37;4.97;;;;;;;8.16;75.99;101828.19;5099069;28;20239;-83
2022/04/30 05:33:42;;;;;;;8.63;4.47;;;;;;;8.14;75.60;101827.38;5098726;28;20331;-83
2022/04/30 05:36:09;;;;;;;11.03;4.73;;;;;;;8.15;76.07;101831.75;5098846;28;20208;-82
2022/04/30 05:38:35;;;;;;;8.53;4.70;;;;;;;8.15;76.25;101827.31;5098068;28;20591;-81
2022/04/30 05:41:02;;;;;;;9.80;4.50;;;;;;;8.14;76.00;101825.59;5097990;28;20291;-82
2022/04/30 05:43:29;;;;;;;9.63;4.77;;;;;;;8.15;76.41;101832.63;5097991;28;20315;-82
2022/04/30 05:45:57;;;;;;;9.53;4.90;;;;;;;8.15;76.98;101826.44;5098054;28;20316;-81
2022/04/30 05:48:24;;;;;;;7.50;4.67;;;;;;;8.15;77.10;101826.44;5097581;28;20227;-82
2022/04/30 05:50:52;;;;;;;9.20;4.70;;;;;;;8.15;77.04;101827.31;5096547;28;20204;-82
2022/04/30 05:53:18;;;;;;;10.20;5.13;;;;;;;8.15;77.16;101824.66;5096642;28;20638;-83
2022/04/30 05:55:45;;;;;;;6.07;4.70;;;;;;;8.15;77.09;101824.66;5097152;28;20215;-82
2022/04/30 05:58:11;;;;;;;11.73;4.87;;;;;;;8.15;77.38;101831.75;5096587;28;20298;-81
2022/04/30 06:00:38;;;;;;;10.93;5.10;;;;;;;8.15;77.63;101827.31;5096747;28;20204;-81
2022/04/30 06:03:06;;;;;;;7.17;4.33;;;;;;;8.14;77.82;101833.53;5096659;28;20903;-81
2022/04/30 06:05:32;;;;;;;9.10;5.03;;;;;;;8.16;77.90;101834.38;5096706;28;20222;-81
2022/04/30 06:07:59;;;;;;;8.27;4.87;;;;;;;8.16;78.63;101839.66;5096741;28;20294;-83
2022/04/30 06:10:26;;;;;;;9.93;5.23;;;;;;;8.17;77.79;101844.06;5079721;28;20292;-83
2022/04/30 06:12:52;;;;;;;9.93;5.43;;;;;;;8.18;78.08;101848.44;5096230;28;20224;-82
2022/04/30 06:15:19;;;;;;;11.50;5.23;;;;;;;8.18;78.22;101847.59;5096205;28;20196;-81
2022/04/30 06:17:45;;;;;;;15.23;5.40;;;;;;;8.19;78.65;101852.84;5095391;28;20235;-80
2022/04/30 06:20:14;;;;;;;9.80;5.00;;;;;;;8.19;78.63;101842.22;5095233;28;20203;-83
2022/04/30 06:22:41;;;;;;;10.77;5.53;;;;;;;8.20;79.26;101838.66;5095725;28;20258;-82
2022/04/30 06:25:10;;;;;;;7.00;5.00;;;;;;;8.22;79.69;101850.09;5095282;28;20279;-80
2022/04/30 06:27:36;;;;;;;9.20;5.30;;;;;;;8.25;79.00;101854.41;5095738;28;20204;-81
2022/04/30 06:30:03;;;;;;;10.47;5.60;;;;;;;8.24;79.77;101852.69;5095379;28;20211;-82
2022/04/30 06:32:30;;;;;;;8.70;5.50;;;;;;;8.23;79.15;101843.00;5095595;28;20201;-81
2022/04/30 06:34:56;;;;;;;9.63;5.10;;;;;;;8.22;79.20;101843.91;5096013;28;20214;-81
2022/04/30 06:37:24;;;;;;;7.77;5.10;;;;;;;8.21;79.82;101844.81;5095865;28;20196;-80
2022/04/30 06:39:51;;;;;;;9.87;5.60;;;;;;;8.20;79.37;101841.31;5095713;28;20721;-80
2022/04/30 06:42:17;;;;;;;7.97;4.83;;;;;;;8.19;80.56;101847.53;5076234;28;20241;-83
2022/04/30 06:44:45;;;;;;;8.50;5.30;;;;;;;8.20;80.41;101851.06;5095349;28;20220;-81
2022/04/30 06:47:11;;;;;;;12.47;5.87;;;;;;;8.21;80.10;101844.81;5095409;28;20300;-83
2022/04/30 06:49:38;;;;;;;9.63;5.80;;;;;;;8.22;80.73;101841.25;5094949;28;20200;-82
2022/04/30 06:52:05;;;;;;;10.57;5.73;;;;;;;8.24;80.78;101847.38;5091491;28;20586;-80
2022/04/30 06:57:20;;;;;;;10.33;5.40;;;;;;;8.24;81.11;101847.38;5093671;28;20274;-80
2022/04/30 06:59:51;;;;;;;8.33;5.83;;;;;;;8.25;81.32;101838.47;5094895;28;20214;-82
2022/04/30 07:02:19;;;;;;;10.10;6.37;;;;;;;8.26;81.30;101829.59;5079069;28;20617;-82
2022/04/30 07:04:49;;;;;;;10.60;6.10;;;;;;;8.28;80.96;101836.59;5092404;28;20230;-81
2022/04/30 07:07:17;;;;;;;13.27;6.03;;;;;;;8.27;81.32;101831.31;5088105;28;20222;-82
2022/04/30 07:09:45;;;;;;;8.80;5.60;;;;;;;8.28;81.71;101839.25;5095256;28;20819;-82
2022/04/30 07:12:13;;;;;;;7.90;6.70;;;;;;;8.31;81.86;101838.28;5095075;28;20200;-82
2022/04/30 07:14:41;;;;;;;8.23;5.73;;;;;;;8.35;82.03;101832.84;5093225;28;20320;-81
2022/04/30 07:17:10;;;;;;;11.30;6.30;;;;;;;8.39;81.47;101830.94;5094966;28;20204;-80
2022/04/30 07:19:36;;;;;;;7.30;5.80;;;;;;;8.41;81.84;101830.91;5080247;28;20201;-82
2022/04/30 07:22:04;;;;;;;9.00;5.60;;;;;;;8.40;82.20;101827.38;5083304;28;20223;-80
2022/04/30 07:24:32;;;;;;;8.77;5.70;;;;;;;8.40;82.17;101830.03;5092834;28;20234;-82
2022/04/30 07:27:00;;;;;;;12.40;6.40;;;;;;;8.42;82.33;101824.66;5077522;28;20295;-83
2022/04/30 07:29:27;;;;;;;10.37;5.83;;;;;;;8.45;82.02;101824.53;5090463;28;20196;-83
2022/04/30 07:31:54;;;;;;;13.13;6.33;;;;;;;8.47;81.87;101825.34;5080220;28;20614;-83
2022/04/30 07:34:20;;;;;;;9.90;6.47;;;;;;;8.50;82.03;101822.59;5089155;28;20277;-83
2022/04/30 07:36:47;;;;;;;10.70;6.30;;;;;;;8.55;82.34;101828.59;5089185;28;20204;-83
2022/04/30 07:39:14;;;;;;;10.50;6.50;;;;;;;8.58;82.03;101825.84;5084672;28;20576;-83
2022/04/30 07:41:41;;;;;;;9.93;5.57;;;;;;;8.63;82.80;101829.19;5092094;28;20217;-83
2022/04/30 07:44:10;;;;;;;7.60;6.00;;;;;;;8.69;82.62;101828.97;5091709;28;20903;-83
2022/04/30 07:46:37;;;;;;;9.20;5.57;;;;;;;8.74;82.67;101821.69;5092851;28;20200;-82
2022/04/30 07:49:04;;;;;;;11.60;5.37;;;;;;;8.80;82.80;101832.06;5093163;28;20239;-83
2022/04/30 07:51:42;;;;;;;11.03;5.80;;;;;;;8.84;82.28;101824.88;5091786;28;20196;-83
2022/04/30 07:54:09;;;;;;;7.93;5.60;;;;;;;8.91;82.89;101832.56;5088041;28;20227;-83
2022/04/30 07:56:36;;;;;;;10.23;5.83;;;;;;;8.95;82.25;101834.19;5081794;28;20204;-83
2022/04/30 07:59:03;;;;;;;13.37;6.63;;;;;;;8.99;82.47;101833.13;5088621;28;20201;-84
2022/04/30 08:01:31;;;;;;;8.87;5.87;;;;;;;9.08;82.53;101834.59;5079315;28;20215;-84
2022/04/30 08:03:57;;;;;;;8.87;5.77;;;;;;;9.16;82.46;101842.25;5082567;28;20704;-83
2022/04/30 08:06:24;;;;;;;9.40;6.33;;;;;;;9.21;82.79;101832.31;5083367;28;20204;-84
2022/04/30 08:08:50;;;;;;;10.53;5.83;;;;;;;9.26;81.95;101835.66;5084975;28;20286;-83
2022/04/30 08:11:17;;;;;;;9.03;6.27;;;;;;;9.30;82.59;101838.16;5081611;28;20694;-83
2022/04/30 08:13:43;;;;;;;10.27;6.70;;;;;;;9.35;81.77;101832.63;5082638;28;20233;-83
2022/04/30 08:16:10;;;;;;;11.10;6.30;;;;;;;9.43;82.12;101833.19;5089133;28;20218;-84
2022/04/30 08:18:39;;;;;;;10.40;6.83;;;;;;;9.51;81.96;101838.19;5091776;28;20208;-83
2022/04/30 08:21:06;;;;;;;10.47;6.80;;;;;;;9.61;81.77;101832.47;5098053;28;20200;-84
2022/04/30 08:23:34;;;;;;;9.47;6.10;;;;;;;9.71;81.98;101838.25;5100229;28;20224;-83
2022/04/30 08:26:01;;;;;;;9.23;6.60;;;;;;;9.76;81.84;101825.66;5100050;28;20257;-83
2022/04/30 08:28:27;;;;;;;9.20;6.13;;;;;;;9.85;81.29;101827.06;5098050;28;20262;-84
2022/04/30 08:30:54;;;;;;;14.13;7.87;;;;;;;9.90;80.99;101817.94;5098879;28;20215;-83
2022/04/30 08:33:20;;;;;;;9.03;6.37;;;;;;;9.96;80.77;101822.16;5096942;28;20298;-82
2022/04/30 08:35:48;;;;;;;9.97;5.83;;;;;;;9.99;80.57;101819.38;5099640;28;20204;-82
2022/04/30 08:38:15;;;;;;;9.93;6.47;;;;;;;9.99;79.54;101822.03;5091381;28;20200;-83
2022/04/30 08:40:44;;;;;;;10.67;5.80;;;;;;;10.00;79.24;101823.78;5094832;28;20200;-83
2022/04/30 08:43:12;;;;;;;8.83;4.90;;;;;;;9.96;78.50;101823.03;5097797;28;20230;-83
2022/04/30 08:45:40;;;;;;;7.23;5.37;;;;;;;9.94;78.37;101821.34;5093315;28;20264;-83
2022/04/30 08:48:08;;;;;;;8.03;5.70;;;;;;;9.93;78.16;101823.16;5089791;28;20378;-84
2022/04/30 08:50:35;;;;;;;7.70;5.80;;;;;;;9.94;78.30;101822.22;5091514;28;20196;-83
2022/04/30 08:53:04;;;;;;;9.93;6.57;;;;;;;9.98;77.76;101820.31;5094908;28;20220;-84
2022/04/30 08:55:31;;;;;;;7.63;6.00;;;;;;;10.05;78.09;101829.75;5098158;28;20196;-83
2022/04/30 08:57:58;;;;;;;10.47;6.47;;;;;;;10.10;77.90;101825.09;5100031;28;20204;-83
2022/04/30 09:00:25;;;;;;;9.30;6.37;;;;;;;10.17;77.68;101823.91;5100579;28;20201;-83
2022/04/30 09:02:52;;;;;;;7.77;5.23;;;;;;;10.19;76.88;101827.41;5100481;28;20246;-83
2022/04/30 09:05:18;;;;;;;7.20;5.60;;;;;;;10.21;76.65;101822.84;5099878;28;20208;-83
2022/04/30 09:07:53;;;;;;;7.73;5.53;;;;;;;10.22;76.43;101816.59;5099541;28;20206;-83
2022/04/30 09:10:27;;;;;;;8.93;5.80;;;;;;;10.24;75.89;101822.72;5099516;28;20195;-83
2022/04/30 09:12:54;;;;;;;8.13;5.87;;;;;;;10.29;75.41;101827.88;5101924;28;20228;-83
2022/04/30 09:15:21;;;;;;;9.13;5.97;;;;;;;10.31;75.36;101818.00;5098795;28;20231;-84
2022/04/30 09:17:57;;;;;;;6.57;5.10;;;;;;;10.37;75.19;101825.75;5091931;28;20872;-83
2022/04/30 09:20:24;;;;;;;8.60;5.33;;;;;;;10.41;74.87;101820.19;5099264;28;20704;-83
2022/04/30 09:22:51;;;;;;;8.60;5.47;;;;;;;10.49;74.14;101817.22;5095409;28;20233;-83
2022/04/30 09:25:19;;;;;;;8.60;5.63;;;;;;;10.60;74.58;101814.91;5100091;28;20280;-83
2022/04/30 09:27:49;;;;;;;9.23;5.70;;;;;;;10.73;74.52;101812.59;5098007;28;20213;-83
2022/04/30 09:30:17;;;;;;;10.20;5.83;;;;;;;10.85;73.40;101819.16;5091157;28;20201;-83
2022/04/30 09:32:44;;;;;;;8.63;5.63;;;;;;;10.92;73.01;101818.81;5091457;28;20227;-84
2022/04/30 09:38:03;;;;;;;6.90;5.27;;;;;;;11.07;70.85;101803.91;5087436;28;20208;-84
2022/04/30 09:40:57;;;;;;;8.27;5.77;;;;;;;11.28;71.65;101812.69;5095713;28;20200;-81
2022/04/30 09:43:30;;;;;;;5.63;4.53;;;;;;;11.37;70.37;101807.75;5029368;28;20278;-81
2022/04/30 09:45:59;;;;;;;7.00;4.37;;;;;;;11.48;69.89;101804.56;5085667;28;20647;-82
2022/04/30 09:53:58;;;;;;;7.83;5.83;;;;;;;11.82;68.84;101793.97;5091195;28;20234;-81
2022/04/30 09:56:34;;;;;;;7.97;6.20;;;;;;;11.88;67.75;101791.94;5084189;28;20204;-81
2022/04/30 09:59:04;;;;;;;9.60;7.47;;;;;;;11.96;67.77;101790.63;5087900;28;20199;-81
2022/04/30 10:01:34;;;;;;;8.87;6.70;;;;;;;12.05;68.06;101790.13;5086646;28;20196;-81
2022/04/30 10:04:05;;;;;;;8.27;6.80;;;;;;;12.18;68.01;101802.88;5088009;28;20230;-81
2022/04/30 10:06:33;;;;;;;7.83;7.00;;;;;;;12.24;67.13;101800.72;5089592;28;20198;-80
2022/04/30 10:09:00;;;;;;;8.40;7.03;;;;;;;12.29;66.63;101804.03;5083904;28;20234;-81
2022/04/30 10:11:34;;;;;;;8.10;7.30;;;;;;;12.33;66.78;101797.59;5090239;28;20226;-81
2022/04/30 10:14:15;;;;;;;8.00;6.53;;;;;;;12.37;66.49;101791.13;5086030;28;20219;-81
2022/04/30 10:16:59;;;;;;;7.93;6.30;;;;;;;12.42;66.08;101794.44;5094955;28;20201;-81
2022/04/30 10:19:25;;;;;;;8.17;6.93;;;;;;;12.49;65.48;101795.84;5083747;28;20199;-81
2022/04/30 10:22:11;;;;;;;7.10;6.37;;;;;;;12.50;65.04;101783.34;5093934;28;20659;-81
2022/04/30 10:24:42;;;;;;;9.90;7.03;;;;;;;12.51;64.44;101783.28;5086459;28;20284;-80
2022/04/30 10:27:09;;;;;;;10.17;6.70;;;;;;;12.55;64.35;101785.75;5094206;28;20656;-81
2022/04/30 10:29:37;;;;;;;9.13;6.03;;;;;;;12.57;64.00;101786.53;5085738;28;20197;-81
2022/04/30 10:32:05;;;;;;;8.73;6.03;;;;;;;12.57;63.56;101782.06;5091268;28;20201;-81
2022/04/30 10:34:32;;;;;;;8.10;6.40;;;;;;;12.57;63.45;101775.84;5089003;28;20230;-81
2022/04/30 10:37:01;;;;;;;10.40;6.70;;;;;;;12.55;63.36;101778.59;5086553;28;20233;-81
2022/04/30 10:39:28;;;;;;;9.63;7.00;;;;;;;12.55;63.21;101783.94;5085437;28;20208;-81
2022/04/30 10:41:54;;;;;;;7.47;6.70;;;;;;;12.56;62.83;101784.81;5094285;28;20228;-81
2022/04/30 10:44:31;;;;;;;9.30;7.63;;;;;;;12.57;62.90;101784.72;5095591;28;20488;-81
2022/04/30 10:47:12;;;;;;;8.73;7.93;;;;;;;12.64;62.95;101785.28;5090451;28;20297;-81
2022/04/30 10:49:38;;;;;;;8.90;7.17;;;;;;;12.67;62.67;101783.31;5088367;28;20209;-81
2022/04/30 10:52:06;;;;;;;8.90;7.30;;;;;;;12.65;62.37;101778.97;5095043;28;20200;-81
2022/04/30 10:54:35;;;;;;;8.00;6.77;;;;;;;12.63;62.04;101786.22;5083983;28;20216;-80
2022/04/30 10:57:03;;;;;;;9.27;6.70;;;;;;;12.61;61.87;101785.44;5088160;28;20207;-84
2022/04/30 10:59:30;;;;;;;8.23;6.33;;;;;;;12.57;62.27;101776.72;5093385;28;20206;-84
2022/04/30 11:01:57;;;;;;;8.00;6.00;;;;;;;12.59;62.52;101776.63;5095381;28;20215;-83
2022/04/30 11:04:25;;;;;;;6.30;5.67;;;;;;;12.61;62.15;101782.75;5094338;28;20691;-84
2022/04/30 11:06:53;;;;;;;7.83;5.97;;;;;;;12.60;61.62;101781.91;5094799;28;20204;-83
2022/04/30 11:09:21;;;;;;;7.60;5.67;;;;;;;12.64;61.51;101785.28;5088551;28;20200;-81
2022/04/30 11:11:49;;;;;;;7.13;5.37;;;;;;;12.65;61.92;101770.97;5093010;28;20230;-81
2022/04/30 11:14:17;;;;;;;6.30;4.90;;;;;;;12.65;61.34;101774.50;5091604;28;20224;-82
2022/04/30 11:16:45;;;;;;;6.87;5.13;;;;;;;12.63;61.45;101765.69;5093569;28;20211;-82
2022/04/30 11:19:13;;;;;;;7.27;5.13;;;;;;;12.63;61.38;101771.03;5094155;28;20209;-80
2022/04/30 11:21:43;;;;;;;8.10;5.10;;;;;;;12.62;61.23;101769.31;5092869;28;20203;-81
2022/04/30 11:24:11;;;;;;;6.93;4.90;;;;;;;12.61;61.06;101772.06;5094865;28;20247;-81
2022/04/30 11:26:38;;;;;;;5.80;5.20;;;;;;;12.61;61.61;101769.41;5083980;28;20207;-81
2022/04/30 11:29:08;;;;;;;7.50;5.07;;;;;;;12.61;61.48;101764.91;5090180;28;20196;-83
2022/04/30 11:31:35;;;;;;;9.97;5.43;;;;;;;12.61;61.06;101761.38;5097400;28;20196;-82
2022/04/30 11:34:08;;;;;;;6.77;5.10;;;;;;;12.56;61.18;101761.63;5092283;28;20318;-81
2022/04/30 11:36:39;;;;;;;6.30;4.97;;;;;;;12.51;61.34;101756.56;5089258;28;20212;-81
2022/04/30 11:39:07;;;;;;;5.83;5.00;;;;;;;12.47;61.26;101760.31;5095604;28;20725;-81
2022/04/30 11:41:38;;;;;;;8.40;5.50;;;;;;;12.42;61.30;101758.84;5092211;28;20200;-80
2022/04/30 11:44:05;;;;;;;7.60;4.97;;;;;;;12.40;61.38;101756.25;5090615;28;20281;-81
2022/04/30 11:46:35;;;;;;;8.60;6.10;;;;;;;12.38;61.61;101752.78;5093773;28;20227;-82
2022/04/30 11:49:07;;;;;;;8.27;5.53;;;;;;;12.39;61.75;101751.84;5094700;28;20674;-79
2022/04/30 11:51:35;;;;;;;5.50;4.60;;;;;;;12.40;61.77;101756.25;5081338;28;20189;-81
2022/04/30 11:54:03;;;;;;;7.57;4.43;;;;;;;12.38;61.54;101750.13;5084228;28;20711;-81
2022/04/30 11:56:33;;;;;;;6.07;4.40;;;;;;;12.35;61.69;101750.31;5081557;28;20207;-82
2022/04/30 11:58:59;;;;;;;8.23;4.67;;;;;;;12.34;61.85;101739.69;5086266;28;20204;-83
2022/04/30 12:01:29;;;;;;;8.97;5.17;;;;;;;12.36;62.10;101743.16;5084491;28;20204;-81
2022/04/30 12:03:58;;;;;;;9.77;4.90;;;;;;;12.38;62.00;101736.75;5079055;28;20264;-82
2022/04/30 12:06:26;;;;;;;5.57;4.60;;;;;;;12.36;61.66;101743.97;5091785;28;20264;-81
2022/04/30 12:08:52;;;;;;;8.77;5.13;;;;;;;12.34;61.97;101740.56;5083560;28;20285;-81
2022/04/30 12:11:19;;;;;;;6.67;5.27;;;;;;;12.36;61.79;101738.66;5094210;28;20200;-81